createdAt,value
2022-12-20T00:02:03.356Z,20.58
2022-12-20T00:04:30.533Z,19.92
2022-12-20T00:06:57.585Z,21.33
2022-12-20T00:09:25.558Z,21.35
2022-12-20T00:11:52.641Z,21.45
2022-12-20T00:14:20.266Z,20.73
2022-12-20T00:16:47.458Z,21.83
2022-12-20T00:19:14.544Z,22.63
2022-12-20T00:21:42.996Z,24.25
2022-12-20T00:24:12.297Z,22.00
2022-12-20T00:26:39.673Z,23.33
2022-12-20T00:29:06.980Z,24.00
2022-12-20T00:31:34.508Z,21.98
2022-12-20T00:34:02.423Z,22.88
2022-12-20T00:36:30.766Z,22.67
2022-12-20T00:38:58.681Z,21.65
2022-12-20T00:41:27.195Z,18.98
2022-12-20T00:43:54.667Z,19.45
2022-12-20T00:46:23.654Z,18.08
2022-12-20T00:48:51.209Z,20.50
2022-12-20T00:51:23.498Z,19.08
2022-12-20T00:53:51.012Z,20.42
2022-12-20T00:56:20.210Z,19.02
2022-12-20T00:58:47.461Z,19.60
2022-12-20T01:01:17.569Z,16.70
2022-12-20T01:03:44.710Z,17.65
2022-12-20T01:06:12.378Z,18.40
2022-12-20T01:08:39.945Z,17.60
2022-12-20T01:11:12.786Z,18.60
2022-12-20T01:13:41.243Z,17.40
2022-12-20T01:16:09.704Z,16.65
2022-12-20T01:18:37.078Z,17.80
2022-12-20T01:21:05.347Z,16.40
2022-12-20T01:23:34.002Z,17.33
2022-12-20T01:26:01.912Z,16.98
2022-12-20T01:28:29.815Z,17.45
2022-12-20T01:30:56.920Z,16.90
2022-12-20T01:33:25.291Z,18.35
2022-12-20T01:35:57.802Z,19.63
2022-12-20T01:38:26.728Z,18.23
2022-12-20T01:40:54.347Z,20.67
2022-12-20T01:43:22.577Z,18.40
2022-12-20T01:45:50.073Z,19.70
2022-12-20T01:48:21.775Z,18.55
2022-12-20T01:50:49.598Z,18.88
2022-12-20T01:53:18.351Z,18.90
2022-12-20T01:55:47.970Z,17.75
2022-12-20T01:58:16.409Z,18.00
2022-12-20T02:00:43.736Z,19.75
2022-12-20T02:03:13.493Z,19.38
2022-12-20T02:05:43.305Z,17.63
2022-12-20T02:08:11.367Z,18.27
2022-12-20T02:10:58.773Z,18.65
2022-12-20T02:13:35.313Z,17.55
2022-12-20T02:16:03.764Z,17.90
2022-12-20T02:18:37.810Z,18.13
2022-12-20T02:21:24.382Z,16.88
2022-12-20T02:23:51.523Z,19.00
2022-12-20T02:26:36.852Z,18.35
2022-12-20T02:29:13.096Z,17.13
2022-12-20T02:31:43.743Z,19.88
2022-12-20T02:36:38.104Z,17.08
2022-12-20T02:39:05.314Z,18.33
2022-12-20T02:41:44.900Z,17.00
2022-12-20T02:44:33.827Z,18.50
2022-12-20T02:47:02.700Z,19.23
2022-12-20T02:49:31.638Z,18.55
2022-12-20T02:52:01.078Z,19.50
2022-12-20T02:54:28.840Z,21.33
2022-12-20T02:56:59.444Z,18.17
2022-12-20T02:59:30.426Z,20.05
2022-12-20T03:01:58.094Z,18.85
2022-12-20T03:04:29.541Z,19.27
2022-12-20T03:07:01.050Z,20.88
2022-12-20T03:09:29.026Z,18.50
2022-12-20T03:11:56.718Z,17.80
2022-12-20T03:14:24.801Z,19.33
2022-12-20T03:16:52.229Z,20.80
2022-12-20T03:19:19.728Z,19.58
2022-12-20T03:21:47.061Z,17.83
2022-12-20T03:24:14.945Z,19.52
2022-12-20T03:26:42.315Z,22.48
2022-12-20T03:29:11.373Z,20.88
2022-12-20T03:31:38.702Z,20.60
2022-12-20T03:34:07.025Z,20.60
2022-12-20T03:36:34.779Z,20.35
2022-12-20T03:39:02.747Z,20.20
2022-12-20T03:41:30.075Z,21.25
2022-12-20T03:43:57.149Z,20.48
2022-12-20T03:46:26.732Z,20.23
2022-12-20T03:48:54.181Z,22.63
2022-12-20T03:51:21.351Z,20.60
2022-12-20T03:53:48.539Z,21.27
2022-12-20T03:56:15.707Z,20.55
2022-12-20T03:58:43.244Z,19.08
2022-12-20T04:01:26.377Z,20.45
2022-12-20T04:03:54.083Z,21.50
2022-12-20T04:06:21.915Z,21.00
2022-12-20T04:08:49.181Z,20.45
2022-12-20T04:11:16.351Z,21.77
2022-12-20T04:13:44.723Z,21.02
2022-12-20T04:16:12.676Z,21.23
2022-12-20T04:18:39.818Z,21.45
2022-12-20T04:21:07.529Z,20.33
2022-12-20T04:23:35.925Z,21.23
2022-12-20T04:26:03.852Z,21.00
2022-12-20T04:28:31.253Z,20.65
2022-12-20T04:31:00.600Z,21.20
2022-12-20T04:33:28.390Z,22.42
2022-12-20T04:35:56.021Z,20.70
2022-12-20T04:38:23.710Z,21.13
2022-12-20T04:40:51.976Z,21.90
2022-12-20T04:43:19.389Z,20.02
2022-12-20T04:45:48.717Z,22.35
2022-12-20T04:48:54.733Z,21.40
2022-12-20T04:51:06.459Z,21.08
2022-12-20T04:53:55.077Z,21.13
2022-12-20T04:56:42.610Z,21.85
2022-12-20T04:59:11.074Z,20.45
2022-12-20T05:01:39.500Z,21.05
2022-12-20T05:04:06.961Z,20.95
2022-12-20T05:06:39.178Z,22.05
2022-12-20T05:09:06.465Z,23.17
2022-12-20T05:11:33.721Z,23.20
2022-12-20T05:14:03.130Z,22.70
2022-12-20T05:16:32.669Z,24.83
2022-12-20T05:18:59.916Z,34.40
2022-12-20T05:21:53.226Z,28.42
2022-12-20T05:24:38.976Z,27.35
2022-12-20T05:27:06.125Z,43.53
2022-12-20T05:29:33.323Z,39.38
2022-12-20T05:32:01.753Z,32.60
2022-12-20T05:34:28.909Z,35.58
2022-12-20T05:36:56.097Z,39.08
2022-12-20T05:39:23.462Z,34.53
2022-12-20T05:41:54.722Z,26.80
2022-12-20T05:44:22.234Z,28.60
2022-12-20T05:46:49.417Z,27.92
2022-12-20T05:49:19.499Z,24.90
2022-12-20T05:51:47.779Z,27.10
2022-12-20T05:54:14.909Z,28.45
2022-12-20T05:56:46.650Z,26.60
2022-12-20T05:59:24.096Z,25.58
2022-12-20T06:01:51.287Z,25.27
2022-12-20T06:04:18.507Z,24.52
2022-12-20T06:06:45.609Z,24.48
2022-12-20T06:09:16.811Z,25.27
2022-12-20T06:11:44.234Z,24.98
2022-12-20T06:14:13.682Z,24.95
2022-12-20T06:16:40.848Z,25.42
2022-12-20T06:19:09.150Z,24.77
2022-12-20T06:21:36.219Z,24.80
2022-12-20T06:24:03.841Z,24.63
2022-12-20T06:26:39.123Z,27.00
2022-12-20T06:29:07.507Z,26.00
2022-12-20T06:31:37.801Z,26.60
2022-12-20T06:34:05.682Z,26.42
2022-12-20T06:36:36.564Z,26.63
2022-12-20T06:39:09.487Z,32.80
2022-12-20T06:41:37.400Z,33.22
2022-12-20T06:44:04.644Z,34.30
2022-12-20T06:46:34.168Z,32.13
2022-12-20T06:49:01.562Z,33.00
2022-12-20T06:51:29.823Z,34.45
2022-12-20T06:53:59.983Z,30.55
2022-12-20T06:56:40.805Z,33.47
2022-12-20T06:59:21.723Z,30.90
2022-12-20T07:01:51.986Z,32.47
2022-12-20T07:04:19.750Z,34.75
2022-12-20T07:06:48.316Z,32.97
2022-12-20T07:09:20.755Z,31.73
2022-12-20T07:11:47.856Z,28.33
2022-12-20T07:14:19.252Z,27.67
2022-12-20T07:16:53.752Z,30.58
2022-12-20T07:19:28.201Z,33.55
2022-12-20T07:21:56.799Z,31.90
2022-12-20T07:24:24.074Z,29.75
2022-12-20T07:27:06.072Z,26.08
2022-12-20T07:29:34.529Z,26.70
2022-12-20T07:32:09.334Z,25.85
2022-12-20T07:34:39.543Z,23.65
2022-12-20T07:37:08.842Z,24.52
2022-12-20T07:39:36.314Z,24.52
2022-12-20T07:42:09.049Z,24.45
2022-12-20T07:44:38.921Z,24.98
2022-12-20T07:47:08.543Z,23.52
2022-12-20T07:49:40.622Z,23.13
2022-12-20T07:52:09.137Z,26.52
2022-12-20T07:54:43.782Z,24.40
2022-12-20T07:57:12.689Z,23.55
2022-12-20T07:59:41.784Z,24.40
2022-12-20T08:02:12.164Z,25.80
2022-12-20T08:04:39.510Z,29.23
2022-12-20T08:07:07.772Z,25.65
2022-12-20T08:09:38.152Z,26.73
2022-12-20T08:12:05.415Z,24.30
2022-12-20T08:14:32.533Z,21.65
2022-12-20T08:17:00.580Z,22.75
2022-12-20T08:19:32.202Z,22.15
2022-12-20T08:21:59.746Z,22.33
2022-12-20T08:24:27.026Z,22.35
2022-12-20T08:26:54.138Z,24.45
2022-12-20T08:29:21.310Z,23.88
2022-12-20T08:31:50.694Z,25.85
2022-12-20T08:34:18.082Z,26.10
2022-12-20T08:36:45.432Z,28.55
2022-12-20T08:39:12.965Z,26.40
2022-12-20T08:41:40.205Z,26.55
2022-12-20T08:44:10.782Z,29.02
2022-12-20T08:46:38.295Z,30.00
2022-12-20T08:49:05.883Z,28.35
2022-12-20T08:51:35.168Z,27.77
2022-12-20T08:54:03.140Z,29.15
2022-12-20T08:56:31.411Z,27.33
2022-12-20T08:58:58.568Z,27.92
2022-12-20T09:01:27.152Z,27.85
2022-12-20T09:03:56.799Z,28.58
2022-12-20T09:06:24.074Z,24.48
2022-12-20T09:08:53.851Z,24.65
2022-12-20T09:11:27.192Z,26.33
2022-12-20T09:13:56.033Z,25.73
2022-12-20T09:16:24.139Z,27.08
2022-12-20T09:19:00.789Z,26.60
2022-12-20T09:21:31.999Z,26.77
2022-12-20T09:24:00.480Z,27.65
2022-12-20T09:26:27.944Z,27.85
2022-12-20T09:28:55.300Z,30.77
2022-12-20T09:31:23.791Z,26.33
2022-12-20T09:33:51.267Z,26.23
2022-12-20T09:36:20.408Z,26.02
2022-12-20T09:38:47.936Z,28.13
2022-12-20T09:41:24.064Z,30.25
2022-12-20T09:43:51.891Z,32.13
2022-12-20T09:46:19.585Z,30.20
2022-12-20T09:48:47.675Z,28.55
2022-12-20T09:51:17.729Z,28.17
2022-12-20T09:53:44.878Z,34.35
2022-12-20T09:56:31.241Z,29.63
2022-12-20T09:59:04.795Z,27.98
2022-12-20T10:01:38.801Z,28.73
2022-12-20T10:04:19.488Z,33.78
2022-12-20T10:07:06.515Z,32.60
2022-12-20T10:09:33.641Z,31.20
2022-12-20T10:12:19.915Z,27.15
2022-12-20T10:15:02.175Z,29.35
2022-12-20T10:17:35.470Z,31.20
2022-12-20T10:20:27.771Z,33.03
2022-12-20T10:23:01.336Z,27.80
2022-12-20T10:25:32.012Z,33.70
2022-12-20T10:30:27.280Z,29.13
2022-12-20T10:32:55.649Z,32.75
2022-12-20T10:35:23.055Z,37.50
2022-12-20T10:38:12.753Z,37.35
2022-12-20T10:43:29.584Z,50.92
2022-12-20T10:46:02.503Z,33.35
2022-12-20T10:48:34.087Z,36.13
2022-12-20T10:51:02.943Z,34.67
2022-12-20T10:53:31.176Z,32.38
2022-12-20T10:56:24.683Z,31.58
2022-12-20T10:58:59.660Z,36.45
2022-12-20T11:01:32.003Z,40.78
2022-12-20T11:04:00.842Z,41.38
2022-12-20T11:06:48.290Z,41.47
2022-12-20T11:09:18.294Z,38.15
2022-12-20T11:12:04.086Z,44.45
2022-12-20T11:14:38.704Z,36.42
2022-12-20T11:17:16.617Z,36.83
2022-12-20T11:20:02.283Z,36.05
2022-12-20T11:22:29.433Z,42.08
2022-12-20T11:25:17.209Z,36.40
2022-12-20T11:28:07.359Z,39.10
2022-12-20T11:30:42.713Z,33.97
2022-12-20T11:33:20.992Z,34.92
2022-12-20T11:35:53.190Z,53.78
2022-12-20T11:38:29.211Z,40.30
2022-12-20T11:41:14.533Z,44.33
2022-12-20T11:46:55.501Z,40.88
2022-12-20T11:49:52.129Z,32.90
2022-12-20T11:52:23.147Z,33.08
2022-12-20T11:54:54.264Z,30.77
2022-12-20T11:57:23.976Z,29.05
2022-12-20T11:59:57.654Z,30.00
2022-12-20T12:02:24.911Z,35.17
2022-12-20T12:05:00.884Z,34.60
2022-12-20T12:07:31.463Z,37.42
2022-12-20T12:10:23.003Z,36.50
2022-12-20T12:13:08.972Z,37.00
2022-12-20T12:15:55.048Z,35.25
2022-12-20T12:18:24.583Z,37.17
2022-12-20T12:21:00.091Z,33.05
2022-12-20T12:23:48.201Z,34.60
2022-12-20T12:26:23.322Z,32.20
2022-12-20T12:28:54.807Z,39.53
2022-12-20T12:31:32.317Z,39.28
2022-12-20T12:34:14.441Z,47.70
2022-12-20T12:36:52.977Z,39.63
2022-12-20T12:39:30.396Z,35.53
2022-12-20T12:41:57.645Z,35.35
2022-12-20T12:44:43.011Z,45.65
2022-12-20T12:47:16.242Z,34.85
2022-12-20T12:49:44.759Z,40.95
2022-12-20T12:52:29.840Z,39.03
2022-12-20T12:55:01.070Z,46.97
2022-12-20T12:57:28.230Z,34.22
2022-12-20T12:59:55.550Z,36.10
2022-12-20T13:02:22.984Z,37.78
2022-12-20T13:04:56.366Z,35.20
2022-12-20T13:07:30.548Z,33.97
2022-12-20T13:09:57.774Z,33.17
2022-12-20T13:12:33.782Z,34.15
2022-12-20T13:15:00.977Z,35.72
2022-12-20T13:17:31.225Z,32.70
2022-12-20T13:19:59.142Z,33.63
2022-12-20T13:22:27.101Z,36.05
2022-12-20T13:24:58.398Z,34.60
2022-12-20T13:27:39.221Z,33.50
2022-12-20T13:30:13.303Z,31.25
2022-12-20T13:32:49.496Z,32.22
2022-12-20T13:35:25.751Z,32.72
2022-12-20T13:37:55.102Z,33.67
2022-12-20T13:40:42.853Z,32.45
2022-12-20T13:43:22.333Z,33.25
2022-12-20T13:45:56.187Z,31.00
2022-12-20T13:48:29.363Z,33.03
2022-12-20T13:50:57.753Z,31.40
2022-12-20T13:53:27.159Z,30.67
2022-12-20T13:55:55.390Z,33.50
2022-12-20T13:58:26.028Z,35.15
2022-12-20T14:03:25.375Z,36.88
2022-12-20T14:05:56.379Z,38.22
2022-12-20T14:08:26.497Z,37.08
2022-12-20T14:10:54.149Z,38.80
2022-12-20T14:13:28.164Z,40.45
2022-12-20T14:15:56.325Z,40.13
2022-12-20T14:18:27.880Z,42.92
2022-12-20T14:20:57.081Z,43.00
2022-12-20T14:23:25.510Z,40.47
2022-12-20T14:25:59.618Z,41.92
2022-12-20T14:28:32.117Z,40.63
2022-12-20T14:31:01.369Z,42.03
2022-12-20T14:33:31.070Z,40.22
2022-12-20T14:36:00.008Z,40.78
2022-12-20T14:38:31.813Z,42.25
2022-12-20T14:40:58.993Z,39.58
2022-12-20T14:43:33.365Z,43.13
2022-12-20T14:46:20.549Z,43.00
2022-12-20T14:48:47.838Z,43.22
2022-12-20T14:51:21.049Z,41.13
2022-12-20T14:53:50.458Z,66.35
2022-12-20T14:56:21.688Z,65.07
2022-12-20T14:59:02.536Z,60.40
2022-12-20T15:01:33.898Z,65.80
2022-12-20T15:04:21.063Z,51.58
2022-12-20T15:06:49.534Z,54.35
2022-12-20T15:09:17.480Z,55.38
2022-12-20T15:11:45.797Z,51.05
2022-12-20T15:14:28.480Z,51.10
2022-12-20T15:16:55.670Z,54.58
2022-12-20T15:19:22.877Z,53.13
2022-12-20T15:21:50.565Z,55.72
2022-12-20T15:24:19.843Z,44.58
2022-12-20T15:26:47.175Z,42.08
2022-12-20T15:29:19.104Z,36.20
2022-12-20T15:31:47.289Z,37.85
2022-12-20T15:34:25.818Z,38.00
2022-12-20T15:36:54.223Z,36.60
2022-12-20T15:39:21.846Z,47.35
2022-12-20T15:41:50.175Z,43.97
2022-12-20T15:44:21.475Z,55.30
2022-12-20T15:46:49.154Z,53.00
2022-12-20T15:49:17.580Z,49.28
2022-12-20T15:51:45.505Z,52.45
2022-12-20T15:54:35.852Z,55.17
2022-12-20T15:57:07.657Z,49.55
2022-12-20T16:02:24.481Z,46.80
2022-12-20T16:04:52.318Z,44.53
2022-12-20T16:07:19.582Z,45.38
2022-12-20T16:09:46.802Z,50.95
2022-12-20T16:12:18.838Z,59.95
2022-12-20T16:14:46.182Z,56.83
2022-12-20T16:17:14.228Z,45.55
2022-12-20T16:19:42.345Z,45.65
2022-12-20T16:22:15.596Z,44.53
2022-12-20T16:24:43.635Z,49.10
2022-12-20T16:27:10.964Z,45.22
2022-12-20T16:29:38.158Z,44.40
2022-12-20T16:32:13.518Z,47.70
2022-12-20T16:34:42.347Z,49.58
2022-12-20T16:37:10.761Z,49.78
2022-12-20T16:39:37.981Z,48.80
2022-12-20T16:42:07.461Z,53.33
2022-12-20T16:44:34.684Z,52.40
2022-12-20T16:47:01.898Z,66.13
2022-12-20T16:49:29.186Z,49.85
2022-12-20T16:51:56.585Z,56.35
2022-12-20T16:54:23.888Z,56.20
2022-12-20T16:56:55.347Z,48.90
2022-12-20T16:59:23.628Z,50.83
2022-12-20T17:01:53.512Z,49.40
2022-12-20T17:04:21.490Z,52.05
2022-12-20T17:06:49.354Z,53.58
2022-12-20T17:12:01.630Z,52.70
2022-12-20T17:14:28.883Z,56.15
2022-12-20T17:16:57.563Z,54.90
2022-12-20T17:19:24.970Z,58.55
2022-12-20T17:24:37.146Z,67.38
2022-12-20T17:27:04.640Z,67.55
2022-12-20T17:29:31.895Z,64.32
2022-12-20T17:31:59.608Z,66.88
2022-12-20T17:34:28.386Z,60.13
2022-12-20T17:36:56.862Z,62.05
2022-12-20T17:39:25.288Z,62.35
2022-12-20T17:41:54.207Z,66.50
2022-12-20T17:44:23.826Z,71.25
2022-12-20T17:46:51.356Z,69.43
2022-12-20T17:49:18.810Z,73.13
2022-12-20T17:51:46.272Z,62.33
2022-12-20T17:54:23.677Z,62.33
2022-12-20T17:56:51.013Z,58.75
2022-12-20T17:59:18.606Z,59.78
2022-12-20T18:01:46.742Z,55.50
2022-12-20T18:04:15.328Z,56.10
2022-12-20T18:06:44.053Z,52.67
2022-12-20T18:09:15.757Z,55.47
2022-12-20T18:11:43.185Z,54.80
2022-12-20T18:14:10.629Z,63.45
2022-12-20T18:16:41.176Z,60.03
2022-12-20T18:19:09.429Z,71.88
2022-12-20T18:21:36.735Z,73.85
2022-12-20T18:24:04.052Z,83.20
2022-12-20T18:26:32.037Z,82.55
2022-12-20T18:29:00.972Z,83.22
2022-12-20T18:31:29.563Z,77.10
2022-12-20T18:33:58.355Z,75.32
2022-12-20T18:36:27.237Z,70.93
2022-12-20T18:38:54.763Z,80.25
2022-12-20T18:41:25.256Z,70.10
2022-12-20T18:43:53.214Z,75.28
2022-12-20T18:46:21.497Z,61.55
2022-12-20T18:48:50.539Z,55.38
2022-12-20T18:51:18.936Z,53.80
2022-12-20T18:53:47.374Z,53.70
2022-12-20T18:56:19.939Z,58.63
2022-12-20T18:58:47.872Z,53.15
2022-12-20T19:01:16.700Z,61.92
2022-12-20T19:03:44.163Z,56.25
2022-12-20T19:06:12.674Z,68.03
2022-12-20T19:08:40.216Z,91.97
2022-12-20T19:11:10.432Z,81.95
2022-12-20T19:13:38.128Z,60.22
2022-12-20T19:16:09.403Z,57.35
2022-12-20T19:18:36.617Z,52.65
2022-12-20T19:21:07.537Z,53.33
2022-12-20T19:23:35.185Z,47.22
2022-12-20T19:26:05.625Z,45.90
2022-12-20T19:28:33.323Z,51.42
2022-12-20T19:31:08.509Z,68.20
2022-12-20T19:33:39.955Z,55.28
2022-12-20T19:36:14.228Z,48.00
2022-12-20T19:38:45.513Z,41.25
2022-12-20T19:41:13.393Z,43.63
2022-12-20T19:43:40.661Z,46.35
2022-12-20T19:46:08.049Z,43.10
2022-12-20T19:48:35.682Z,47.08
2022-12-20T19:51:03.638Z,46.00
2022-12-20T19:53:30.865Z,43.33
2022-12-20T19:55:58.253Z,44.03
2022-12-20T19:58:25.746Z,47.25
2022-12-20T20:00:53.240Z,49.22
2022-12-20T20:03:21.572Z,50.97
2022-12-20T20:05:49.281Z,50.95
2022-12-20T20:08:16.871Z,53.47
2022-12-20T20:10:44.798Z,55.75
2022-12-20T20:13:12.177Z,53.38
2022-12-20T20:15:39.524Z,62.70
2022-12-20T20:18:07.364Z,65.15
2022-12-20T20:20:34.900Z,57.08
2022-12-20T20:23:02.124Z,59.60
2022-12-20T20:25:29.319Z,59.17
2022-12-20T20:27:56.480Z,67.03
2022-12-20T20:30:23.649Z,64.65
2022-12-20T20:32:50.850Z,64.63
2022-12-20T20:35:18.106Z,61.25
2022-12-20T20:37:45.280Z,67.50
2022-12-20T20:40:13.105Z,61.10
2022-12-20T20:42:40.252Z,53.80
2022-12-20T20:45:07.933Z,57.63
2022-12-20T20:47:35.095Z,63.47
2022-12-20T20:50:02.333Z,60.22
2022-12-20T20:52:29.497Z,64.47
2022-12-20T20:54:56.653Z,55.25
2022-12-20T20:57:23.826Z,46.92
2022-12-20T20:59:50.979Z,48.25
2022-12-20T21:02:20.950Z,46.58
2022-12-20T21:05:16.629Z,46.90
2022-12-20T21:07:36.493Z,47.22
2022-12-20T21:10:04.367Z,46.95
2022-12-20T21:12:31.686Z,49.92
2022-12-20T21:17:46.291Z,50.85
2022-12-20T21:20:13.776Z,53.58
2022-12-20T21:22:41.028Z,53.45
2022-12-20T21:25:08.650Z,54.45
2022-12-20T21:27:35.832Z,55.10
2022-12-20T21:30:04.452Z,56.22
2022-12-20T21:32:31.776Z,55.10
2022-12-20T21:34:59.551Z,55.30
2022-12-20T21:37:27.026Z,61.05
2022-12-20T21:39:54.208Z,61.88
2022-12-20T21:42:21.389Z,57.08
2022-12-20T21:44:48.756Z,57.67
2022-12-20T21:47:16.004Z,60.03
2022-12-20T21:49:43.261Z,56.67
2022-12-20T21:52:11.888Z,60.00
2022-12-20T21:54:39.281Z,60.30
2022-12-20T21:57:06.491Z,57.47
2022-12-20T21:59:33.698Z,57.75
2022-12-20T22:02:01.245Z,59.13
2022-12-20T22:04:28.634Z,58.20
2022-12-20T22:06:55.821Z,55.67
2022-12-20T22:09:23.213Z,56.75
2022-12-20T22:11:50.517Z,56.15
2022-12-20T22:14:17.682Z,57.97
2022-12-20T22:16:45.072Z,58.28
2022-12-20T22:19:14.706Z,55.60
2022-12-20T22:21:41.937Z,56.10
2022-12-20T22:24:09.285Z,56.67
2022-12-20T22:26:37.007Z,54.08
2022-12-20T22:29:06.015Z,57.90
2022-12-20T22:31:33.705Z,56.28
2022-12-20T22:34:01.877Z,56.40
2022-12-20T22:36:29.197Z,56.88
2022-12-20T22:38:57.185Z,54.28
2022-12-20T22:41:26.489Z,55.47
2022-12-20T22:43:54.284Z,56.33
2022-12-20T22:46:21.859Z,57.60
2022-12-20T22:48:49.400Z,59.75
2022-12-20T22:51:19.286Z,59.10
2022-12-20T22:53:47.515Z,59.28
2022-12-20T22:56:15.454Z,56.25
2022-12-20T22:58:42.714Z,56.35
2022-12-20T23:01:12.388Z,61.53
2022-12-20T23:03:39.671Z,59.80
2022-12-20T23:06:08.189Z,62.42
2022-12-20T23:08:36.613Z,63.80
2022-12-20T23:11:23.181Z,59.60
2022-12-20T23:14:09.375Z,54.35
2022-12-20T23:16:37.878Z,56.03
2022-12-20T23:19:05.327Z,56.85
2022-12-20T23:21:51.007Z,55.60
2022-12-20T23:24:18.201Z,62.15
2022-12-20T23:26:45.435Z,56.58
2022-12-20T23:29:14.204Z,59.63
2022-12-20T23:31:41.773Z,59.42
2022-12-20T23:34:08.991Z,59.97
2022-12-20T23:36:36.304Z,60.38
2022-12-20T23:39:04.097Z,60.65
2022-12-20T23:41:31.347Z,59.50
2022-12-20T23:43:58.636Z,57.40
2022-12-20T23:46:26.424Z,61.65
2022-12-20T23:48:54.173Z,60.10
2022-12-20T23:51:21.938Z,59.63
2022-12-20T23:53:49.803Z,59.22
2022-12-20T23:56:18.423Z,58.42
2022-12-20T23:58:46.226Z,58.13
